createdAt,value
2019-06-15T00:00:35.745Z,94952.41
2019-06-15T00:03:10.500Z,94955.73
2019-06-15T00:05:48.287Z,94956.17
2019-06-15T00:08:27.000Z,94955.64
2019-06-15T00:11:08.646Z,94951.27
2019-06-15T00:13:47.163Z,94947.98
2019-06-15T00:16:22.194Z,94950.66
2019-06-15T00:18:59.503Z,94947.73
2019-06-15T00:21:36.302Z,94946.75
2019-06-15T00:24:10.908Z,94941.09
2019-06-15T00:26:45.759Z,94931.95
2019-06-15T00:29:22.367Z,94935.58
2019-06-15T00:31:58.760Z,94933.42
2019-06-15T00:34:35.808Z,94939.35
2019-06-15T00:37:11.018Z,94936.95
2019-06-15T00:39:44.633Z,94935.75
2019-06-15T00:42:21.742Z,94932.27
2019-06-15T00:44:56.616Z,94931.41
2019-06-15T00:47:32.539Z,94937.75
2019-06-15T00:50:09.352Z,94937.80
2019-06-15T00:52:44.702Z,94932.08
2019-06-15T00:55:21.065Z,94922.25
2019-06-15T00:57:58.580Z,94924.84
2019-06-15T01:00:34.516Z,94927.05
2019-06-15T01:03:10.508Z,94922.84
2019-06-15T01:05:47.719Z,94917.66
2019-06-15T01:08:27.497Z,94908.23
2019-06-15T01:11:01.668Z,94909.63
2019-06-15T01:13:38.694Z,94907.50
2019-06-15T01:16:15.325Z,94904.29
2019-06-15T01:18:49.552Z,94908.04
2019-06-15T01:21:44.877Z,94908.48
2019-06-15T01:24:19.582Z,94912.09
2019-06-15T01:27:00.264Z,94913.22
2019-06-15T01:29:37.224Z,94912.77
2019-06-15T01:32:12.715Z,94908.20
2019-06-15T01:34:51.742Z,94906.27
2019-06-15T01:37:26.277Z,94913.08
2019-06-15T01:40:02.071Z,94914.58
2019-06-15T01:42:38.306Z,94916.53
2019-06-15T01:45:15.408Z,94910.98
2019-06-15T01:47:51.524Z,94911.92
2019-06-15T01:50:25.721Z,94911.40
2019-06-15T01:53:00.481Z,94908.78
2019-06-15T01:55:36.956Z,94911.20
2019-06-15T01:58:11.496Z,94918.76
2019-06-15T02:00:49.553Z,94921.95
2019-06-15T02:03:23.393Z,94922.84
2019-06-15T02:05:59.989Z,94915.52
2019-06-15T02:08:35.625Z,94915.14
2019-06-15T02:11:08.557Z,94909.50
2019-06-15T02:13:48.445Z,94911.86
2019-06-15T02:16:22.964Z,94926.11
2019-06-15T02:18:57.930Z,94925.08
2019-06-15T02:21:31.792Z,94930.01
2019-06-15T02:24:07.156Z,94930.17
2019-06-15T02:26:41.121Z,94935.81
2019-06-15T02:29:15.189Z,94936.50
2019-06-15T02:31:51.679Z,94936.83
2019-06-15T02:34:29.349Z,94931.70
2019-06-15T02:37:07.023Z,94936.73
2019-06-15T02:39:44.747Z,94929.59
2019-06-15T02:42:20.263Z,94928.42
2019-06-15T02:44:54.397Z,94940.39
2019-06-15T02:47:28.603Z,94932.20
2019-06-15T02:50:03.846Z,94929.91
2019-06-15T02:52:37.970Z,94933.81
2019-06-15T02:55:13.420Z,94927.64
2019-06-15T02:57:49.615Z,94936.49
2019-06-15T03:00:41.345Z,94945.94
2019-06-15T03:03:16.552Z,94948.27
2019-06-15T03:05:53.258Z,94947.47
2019-06-15T03:08:31.502Z,94948.70
2019-06-15T03:11:06.975Z,94953.69
2019-06-15T03:13:45.532Z,94950.72
2019-06-15T03:16:22.511Z,94949.91
2019-06-15T03:18:57.285Z,94956.55
2019-06-15T03:21:30.170Z,94955.61
2019-06-15T03:24:02.935Z,94958.79
2019-06-15T03:26:36.097Z,94954.48
2019-06-15T03:29:09.005Z,94953.56
2019-06-15T03:31:42.061Z,94947.69
2019-06-15T03:34:15.101Z,94944.81
2019-06-15T03:36:48.236Z,94943.48
2019-06-15T03:39:21.153Z,94938.66
2019-06-15T03:42:15.482Z,94935.01
2019-06-15T03:44:48.910Z,94936.62
2019-06-15T03:47:22.046Z,94945.95
2019-06-15T03:49:56.289Z,94946.11
2019-06-15T03:52:29.985Z,94949.41
2019-06-15T03:55:03.262Z,94944.21
2019-06-15T03:57:36.420Z,94950.73
2019-06-15T04:00:47.310Z,94956.31
2019-06-15T04:03:40.455Z,94954.66
2019-06-15T04:06:13.750Z,94954.26
2019-06-15T04:08:46.940Z,94957.08
2019-06-15T04:11:19.935Z,94958.16
2019-06-15T04:13:52.851Z,94959.77
2019-06-15T04:16:25.925Z,94965.61
2019-06-15T04:18:59.836Z,94958.27
2019-06-15T04:21:34.512Z,94959.17
2019-06-15T04:24:08.057Z,94956.33
2019-06-15T04:26:41.168Z,94958.69
2019-06-15T04:29:14.548Z,94961.24
2019-06-15T04:31:47.671Z,94960.95
2019-06-15T04:34:20.751Z,94961.14
2019-06-15T04:36:53.968Z,94962.37
2019-06-15T04:39:27.045Z,94965.80
2019-06-15T04:42:00.233Z,94964.71
2019-06-15T04:44:34.965Z,94963.64
2019-06-15T04:47:09.838Z,94962.75
2019-06-15T04:49:43.116Z,94960.67
2019-06-15T04:52:16.947Z,94959.23
2019-06-15T04:54:50.213Z,94961.95
2019-06-15T04:57:23.085Z,94966.48
2019-06-15T04:59:56.163Z,94959.15
2019-06-15T05:02:29.521Z,94954.92
2019-06-15T05:05:02.403Z,94957.16
2019-06-15T05:07:54.444Z,94964.16
2019-06-15T05:10:27.759Z,94970.61
2019-06-15T05:13:00.926Z,94972.27
2019-06-15T05:15:34.270Z,94970.89
2019-06-15T05:18:07.414Z,94970.77
2019-06-15T05:20:40.359Z,94964.01
2019-06-15T05:23:13.618Z,94965.60
2019-06-15T05:25:47.192Z,94954.97
2019-06-15T05:28:20.399Z,94954.33
2019-06-15T05:30:53.723Z,94957.27
2019-06-15T05:33:27.030Z,94955.45
2019-06-15T05:36:00.285Z,94946.45
2019-06-15T05:38:33.207Z,94944.26
2019-06-15T05:41:06.687Z,94950.72
2019-06-15T05:43:39.731Z,94947.87
2019-06-15T05:46:13.283Z,94942.94
2019-06-15T05:48:46.326Z,94946.63
2019-06-15T05:51:19.581Z,94948.54
2019-06-15T05:53:52.584Z,94953.84
2019-06-15T05:56:25.759Z,94952.14
2019-06-15T05:58:59.148Z,94960.84
2019-06-15T06:01:31.990Z,94952.84
2019-06-15T06:04:05.040Z,94953.37
2019-06-15T06:06:38.469Z,94949.71
2019-06-15T06:09:11.631Z,94947.41
2019-06-15T06:11:44.818Z,94943.83
2019-06-15T06:14:19.053Z,94939.38
2019-06-15T06:16:52.108Z,94939.84
2019-06-15T06:19:25.635Z,94940.41
2019-06-15T06:21:58.665Z,94933.47
2019-06-15T06:24:32.219Z,94930.78
2019-06-15T06:27:05.545Z,94923.86
2019-06-15T06:29:38.553Z,94926.62
2019-06-15T06:32:11.718Z,94927.13
2019-06-15T06:34:45.483Z,94925.73
2019-06-15T06:37:18.740Z,94922.02
2019-06-15T06:39:52.307Z,94917.96
2019-06-15T06:42:25.209Z,94922.08
2019-06-15T06:44:58.598Z,94919.34
2019-06-15T06:47:31.800Z,94918.45
2019-06-15T06:50:05.077Z,94911.02
2019-06-15T06:52:38.336Z,94912.56
2019-06-15T06:55:11.967Z,94906.25
2019-06-15T06:57:52.647Z,94910.46
2019-06-15T07:00:20.427Z,94906.81
2019-06-15T07:02:53.612Z,94906.81
2019-06-15T07:05:27.418Z,94907.29
2019-06-15T07:08:00.868Z,94894.96
2019-06-15T07:10:34.135Z,94901.20
2019-06-15T07:13:07.407Z,94901.41
2019-06-15T07:15:40.734Z,94901.06
2019-06-15T07:18:13.754Z,94900.44
2019-06-15T07:20:46.923Z,94897.08
2019-06-15T07:23:20.163Z,94899.14
2019-06-15T07:25:54.322Z,94896.66
2019-06-15T07:28:27.230Z,94899.34
2019-06-15T07:31:00.896Z,94893.08
2019-06-15T07:33:34.003Z,94884.63
2019-06-15T07:36:07.625Z,94882.53
2019-06-15T07:38:40.869Z,94881.97
2019-06-15T07:41:13.992Z,94884.17
2019-06-15T07:43:47.241Z,94885.94
2019-06-15T07:46:20.334Z,94882.01
2019-06-15T07:48:53.728Z,94879.31
2019-06-15T07:51:26.623Z,94879.09
2019-06-15T07:53:59.664Z,94874.34
2019-06-15T07:56:32.804Z,94878.39
2019-06-15T07:59:06.305Z,94878.95
2019-06-15T08:01:39.403Z,94875.65
2019-06-15T08:04:12.503Z,94874.70
2019-06-15T08:06:48.308Z,94875.53
2019-06-15T08:09:21.761Z,94873.81
2019-06-15T08:12:17.892Z,94874.27
2019-06-15T08:14:54.043Z,94876.47
2019-06-15T08:17:30.433Z,94871.56
2019-06-15T08:20:13.935Z,94863.91
2019-06-15T08:22:50.825Z,94862.93
2019-06-15T08:25:28.547Z,94859.67
2019-06-15T08:28:04.214Z,94858.52
2019-06-15T08:30:54.705Z,94860.01
2019-06-15T08:33:28.179Z,94858.11
2019-06-15T08:36:04.625Z,94860.88
2019-06-15T08:38:40.462Z,94854.41
2019-06-15T08:41:16.834Z,94844.59
2019-06-15T08:43:53.860Z,94854.73
2019-06-15T08:46:29.728Z,94850.49
2019-06-15T08:49:06.142Z,94848.73
2019-06-15T08:51:44.523Z,94848.88
2019-06-15T08:54:22.612Z,94845.32
2019-06-15T08:56:59.888Z,94840.45
2019-06-15T08:59:38.690Z,94835.22
2019-06-15T09:02:14.520Z,94832.59
2019-06-15T09:04:48.340Z,94829.88
2019-06-15T09:07:26.747Z,94829.33
2019-06-15T09:10:06.129Z,94825.69
2019-06-15T09:12:44.554Z,94832.77
2019-06-15T09:15:26.211Z,94824.02
2019-06-15T09:18:03.641Z,94827.75
2019-06-15T09:20:40.277Z,94830.59
2019-06-15T09:23:16.528Z,94820.04
2019-06-15T09:25:55.772Z,94818.47
2019-06-15T09:28:31.883Z,94825.76
2019-06-15T09:31:07.569Z,94809.72
2019-06-15T09:33:45.781Z,94820.70
2019-06-15T09:36:22.369Z,94813.45
2019-06-15T09:38:57.969Z,94815.45
2019-06-15T09:41:45.352Z,94811.36
2019-06-15T09:44:20.653Z,94815.13
2019-06-15T09:46:57.228Z,94815.60
2019-06-15T09:49:34.592Z,94820.00
2019-06-15T09:52:09.843Z,94813.97
2019-06-15T09:54:43.184Z,94821.77
2019-06-15T09:57:16.450Z,94809.20
2019-06-15T09:59:49.582Z,94800.92
2019-06-15T10:02:22.740Z,94798.58
2019-06-15T10:04:56.075Z,94799.88
2019-06-15T10:07:29.384Z,94799.37
2019-06-15T10:10:03.854Z,94791.91
2019-06-15T10:12:36.994Z,94784.98
2019-06-15T10:15:11.154Z,94788.55
2019-06-15T10:17:44.571Z,94786.11
2019-06-15T10:20:20.158Z,94783.58
2019-06-15T10:22:53.284Z,94789.83
2019-06-15T10:25:26.508Z,94784.31
2019-06-15T10:28:01.184Z,94783.48
2019-06-15T10:30:34.505Z,94775.59
2019-06-15T10:33:07.695Z,94772.16
2019-06-15T10:35:40.684Z,94770.34
2019-06-15T10:38:13.686Z,94774.94
2019-06-15T10:40:46.836Z,94767.89
2019-06-15T10:43:20.085Z,94761.38
2019-06-15T10:45:53.511Z,94764.69
2019-06-15T10:48:26.874Z,94754.36
2019-06-15T10:50:59.968Z,94749.76
2019-06-15T10:53:33.063Z,94751.59
2019-06-15T10:56:06.097Z,94753.34
2019-06-15T10:58:39.544Z,94747.67
2019-06-15T11:01:12.407Z,94743.09
2019-06-15T11:03:45.485Z,94735.66
2019-06-15T11:06:18.727Z,94739.75
2019-06-15T11:08:52.038Z,94732.43
2019-06-15T11:11:25.632Z,94728.58
2019-06-15T11:14:00.555Z,94723.52
2019-06-15T11:16:33.767Z,94715.30
2019-06-15T11:19:06.955Z,94713.41
2019-06-15T11:21:40.225Z,94711.38
2019-06-15T11:24:14.025Z,94701.41
2019-06-15T11:26:47.238Z,94704.29
2019-06-15T11:29:20.881Z,94700.50
2019-06-15T11:31:54.256Z,94692.47
2019-06-15T11:34:27.426Z,94684.91
2019-06-15T11:37:00.629Z,94684.08
2019-06-15T11:39:33.821Z,94681.94
2019-06-15T11:42:07.146Z,94675.63
2019-06-15T11:44:40.469Z,94684.27
2019-06-15T11:47:13.728Z,94677.42
2019-06-15T11:49:46.919Z,94670.20
2019-06-15T11:52:20.004Z,94668.95
2019-06-15T11:54:53.128Z,94668.28
2019-06-15T11:57:26.244Z,94662.12
2019-06-15T11:59:59.541Z,94665.06
2019-06-15T12:02:32.793Z,94660.06
2019-06-15T12:05:06.144Z,94654.79
2019-06-15T12:07:39.305Z,94668.80
2019-06-15T12:10:12.637Z,94656.16
2019-06-15T12:12:45.965Z,94656.25
2019-06-15T12:15:19.101Z,94658.48
2019-06-15T12:17:52.086Z,94652.36
2019-06-15T12:20:25.367Z,94650.78
2019-06-15T12:22:58.502Z,94644.19
2019-06-15T12:25:31.674Z,94650.42
2019-06-15T12:28:05.036Z,94639.75
2019-06-15T12:30:47.088Z,94637.27
2019-06-15T12:33:15.871Z,94639.29
2019-06-15T12:35:49.586Z,94638.02
2019-06-15T12:38:22.902Z,94631.22
2019-06-15T12:40:56.308Z,94634.00
2019-06-15T12:43:29.863Z,94629.33
2019-06-15T12:46:03.615Z,94628.76
2019-06-15T12:48:36.481Z,94628.37
2019-06-15T12:51:09.662Z,94634.08
2019-06-15T12:53:43.322Z,94630.35
2019-06-15T12:56:16.742Z,94623.11
2019-06-15T12:58:49.986Z,94635.64
2019-06-15T13:01:24.626Z,94631.91
2019-06-15T13:03:57.812Z,94629.05
2019-06-15T13:06:30.967Z,94622.77
2019-06-15T13:09:04.064Z,94617.02
2019-06-15T13:11:37.230Z,94615.62
2019-06-15T13:14:10.597Z,94609.00
2019-06-15T13:16:43.620Z,94612.37
2019-06-15T13:19:16.718Z,94613.22
2019-06-15T13:21:50.075Z,94610.94
2019-06-15T13:24:23.256Z,94613.39
2019-06-15T13:26:57.354Z,94606.72
2019-06-15T13:29:30.762Z,94599.41
2019-06-15T13:32:03.673Z,94606.94
2019-06-15T13:34:37.139Z,94602.25
2019-06-15T13:37:10.707Z,94604.31
2019-06-15T13:39:43.980Z,94604.77
2019-06-15T13:42:17.200Z,94605.34
2019-06-15T13:44:50.288Z,94597.44
2019-06-15T13:47:23.679Z,94595.55
2019-06-15T13:49:57.947Z,94600.29
2019-06-15T13:52:31.397Z,94600.03
2019-06-15T13:55:05.204Z,94591.89
2019-06-15T13:57:41.436Z,94600.14
2019-06-15T14:00:16.764Z,94596.76
2019-06-15T14:02:49.829Z,94609.36
2019-06-15T14:05:43.131Z,94605.53
2019-06-15T14:08:16.717Z,94607.33
2019-06-15T14:10:50.436Z,94611.02
2019-06-15T14:13:23.608Z,94602.72
2019-06-15T14:15:57.174Z,94594.17
2019-06-15T14:18:31.388Z,94582.14
2019-06-15T14:21:04.416Z,94581.68
2019-06-15T14:23:37.649Z,94593.06
2019-06-15T14:26:11.525Z,94597.48
2019-06-15T14:28:45.143Z,94597.80
2019-06-15T14:31:18.725Z,94589.36
2019-06-15T14:33:52.050Z,94586.70
2019-06-15T14:36:25.340Z,94581.59
2019-06-15T14:38:58.289Z,94577.77
2019-06-15T14:41:31.793Z,94573.84
2019-06-15T14:44:05.224Z,94584.55
2019-06-15T14:46:38.553Z,94583.44
2019-06-15T14:49:11.952Z,94584.37
2019-06-15T14:51:45.051Z,94584.68
2019-06-15T14:54:18.284Z,94585.75
2019-06-15T14:56:51.907Z,94583.58
2019-06-15T14:59:26.519Z,94580.90
2019-06-15T15:02:10.015Z,94583.05
2019-06-15T15:04:36.771Z,94584.52
2019-06-15T15:07:09.762Z,94589.84
2019-06-15T15:09:43.092Z,94582.96
2019-06-15T15:12:16.673Z,94582.98
2019-06-15T15:14:50.119Z,94575.45
2019-06-15T15:17:26.564Z,94578.70
2019-06-15T15:19:58.595Z,94574.71
2019-06-15T15:22:32.294Z,94575.39
2019-06-15T15:25:06.497Z,94580.73
2019-06-15T15:27:39.889Z,94577.20
2019-06-15T15:30:16.505Z,94579.87
2019-06-15T15:32:49.648Z,94573.41
2019-06-15T15:35:22.771Z,94579.89
2019-06-15T15:37:56.780Z,94580.49
2019-06-15T15:40:30.008Z,94579.30
2019-06-15T15:43:03.444Z,94583.39
2019-06-15T15:45:37.248Z,94583.03
2019-06-15T15:48:10.402Z,94585.23
2019-06-15T15:50:44.062Z,94590.77
2019-06-15T15:53:17.393Z,94592.95
2019-06-15T15:55:50.476Z,94592.84
2019-06-15T15:58:23.732Z,94592.86
2019-06-15T16:00:57.253Z,94592.52
2019-06-15T16:03:30.746Z,94591.41
2019-06-15T16:06:04.004Z,94596.47
2019-06-15T16:08:37.623Z,94594.11
2019-06-15T16:11:10.913Z,94596.44
2019-06-15T16:13:46.184Z,94592.52
2019-06-15T16:16:19.700Z,94594.30
2019-06-15T16:18:55.978Z,94583.93
2019-06-15T16:21:39.165Z,94587.11
2019-06-15T16:24:12.201Z,94598.48
2019-06-15T16:26:46.661Z,94597.87
2019-06-15T16:29:20.064Z,94606.39
2019-06-15T16:31:52.844Z,94610.89
2019-06-15T16:34:26.996Z,94607.27
2019-06-15T16:37:00.149Z,94606.02
2019-06-15T16:39:33.110Z,94599.17
2019-06-15T16:42:06.659Z,94602.50
2019-06-15T16:44:39.865Z,94601.39
2019-06-15T16:47:13.163Z,94594.10
2019-06-15T16:49:46.720Z,94598.97
2019-06-15T16:52:20.440Z,94593.34
2019-06-15T16:54:53.744Z,94600.20
2019-06-15T16:57:26.997Z,94588.20
2019-06-15T17:00:00.042Z,94593.86
2019-06-15T17:02:33.183Z,94599.42
2019-06-15T17:05:06.701Z,94599.73
2019-06-15T17:07:40.190Z,94607.76
2019-06-15T17:10:16.740Z,94603.33
2019-06-15T17:12:48.136Z,94599.66
2019-06-15T17:15:21.471Z,94601.75
2019-06-15T17:17:56.324Z,94601.51
2019-06-15T17:20:36.112Z,94602.03
2019-06-15T17:23:10.527Z,94598.55
2019-06-15T17:25:43.729Z,94594.48
2019-06-15T17:28:17.157Z,94600.25
2019-06-15T17:30:50.139Z,94596.64
2019-06-15T17:33:34.326Z,94600.09
2019-06-15T17:36:02.770Z,94604.89
2019-06-15T17:38:33.190Z,94605.14
2019-06-15T17:41:08.627Z,94601.78
2019-06-15T17:43:41.684Z,94600.77
2019-06-15T17:46:16.480Z,94603.06
2019-06-15T17:48:49.312Z,94603.90
2019-06-15T17:51:22.497Z,94610.02
2019-06-15T17:53:56.385Z,94612.39
2019-06-15T17:56:29.623Z,94613.25
2019-06-15T17:59:02.916Z,94607.34
2019-06-15T18:01:36.457Z,94607.67
2019-06-15T18:04:10.106Z,94604.91
2019-06-15T18:06:43.175Z,94604.35
2019-06-15T18:09:17.050Z,94602.59
2019-06-15T18:11:53.737Z,94605.42
2019-06-15T18:14:28.006Z,94606.08
2019-06-15T18:17:01.308Z,94611.33
2019-06-15T18:19:41.254Z,94611.61
2019-06-15T18:22:16.788Z,94611.92
2019-06-15T18:24:48.920Z,94615.80
2019-06-15T18:27:22.041Z,94613.09
2019-06-15T18:29:55.361Z,94614.85
2019-06-15T18:32:28.684Z,94614.94
2019-06-15T18:35:01.878Z,94617.47
2019-06-15T18:37:37.064Z,94624.83
2019-06-15T18:40:10.333Z,94615.62
2019-06-15T18:42:46.368Z,94623.77
2019-06-15T18:45:19.631Z,94630.38
2019-06-15T18:47:53.203Z,94631.45
2019-06-15T18:50:37.706Z,94634.64
2019-06-15T18:53:10.999Z,94638.86
2019-06-15T18:55:47.006Z,94637.63
2019-06-15T18:58:19.136Z,94641.94
2019-06-15T19:00:52.254Z,94647.81
2019-06-15T19:03:27.778Z,94653.31
2019-06-15T19:06:01.433Z,94653.77
2019-06-15T19:08:34.762Z,94663.18
2019-06-15T19:11:08.210Z,94650.84
2019-06-15T19:13:41.250Z,94651.20
2019-06-15T19:16:16.464Z,94657.49
2019-06-15T19:18:49.375Z,94655.42
2019-06-15T19:21:22.728Z,94655.69
2019-06-15T19:23:56.539Z,94658.61
2019-06-15T19:26:31.383Z,94662.78
2019-06-15T19:29:06.529Z,94661.56
2019-06-15T19:31:42.460Z,94670.97
2019-06-15T19:34:16.731Z,94671.11
2019-06-15T19:36:50.269Z,94675.36
2019-06-15T19:39:22.902Z,94674.73
2019-06-15T19:41:56.367Z,94678.96
2019-06-15T19:44:32.495Z,94682.91
2019-06-15T19:47:07.188Z,94687.40
2019-06-15T19:49:40.513Z,94692.33
2019-06-15T19:52:14.010Z,94689.89
2019-06-15T19:54:47.380Z,94688.34
2019-06-15T19:57:20.445Z,94683.94
2019-06-15T19:59:56.074Z,94678.30
2019-06-15T20:02:29.869Z,94672.39
2019-06-15T20:05:03.934Z,94679.22
2019-06-15T20:07:37.228Z,94681.80
2019-06-15T20:10:11.550Z,94685.62
2019-06-15T20:12:46.612Z,94687.87
2019-06-15T20:15:22.086Z,94689.62
2019-06-15T20:17:57.006Z,94696.55
2019-06-15T20:20:30.305Z,94698.56
2019-06-15T20:23:03.494Z,94687.58
2019-06-15T20:25:39.740Z,94693.50
2019-06-15T20:28:17.763Z,94689.14
2019-06-15T20:30:57.104Z,94686.45
2019-06-15T20:33:30.555Z,94688.68
2019-06-15T20:36:06.975Z,94687.19
2019-06-15T20:38:43.424Z,94692.52
2019-06-15T20:41:26.972Z,94699.08
2019-06-15T20:44:02.565Z,94698.81
2019-06-15T20:46:41.041Z,94694.62
2019-06-15T20:49:20.769Z,94704.77
2019-06-15T20:51:56.632Z,94707.02
2019-06-15T20:54:32.500Z,94705.25
2019-06-15T20:57:08.383Z,94703.41
2019-06-15T20:59:42.573Z,94700.16
2019-06-15T21:02:21.223Z,94697.92
2019-06-15T21:04:57.423Z,94704.34
2019-06-15T21:07:32.720Z,94694.06
2019-06-15T21:10:10.347Z,94690.90
2019-06-15T21:12:47.099Z,94688.23
2019-06-15T21:15:27.579Z,94686.69
2019-06-15T21:18:06.790Z,94687.41
2019-06-15T21:20:47.055Z,94685.20
2019-06-15T21:23:26.852Z,94694.20
2019-06-15T21:26:01.919Z,94698.59
2019-06-15T21:28:40.962Z,94700.97
2019-06-15T21:31:18.135Z,94696.25
2019-06-15T21:33:56.001Z,94706.16
2019-06-15T21:36:30.371Z,94707.11
2019-06-15T21:39:07.060Z,94711.16
2019-06-15T21:41:46.269Z,94710.98
2019-06-15T21:44:21.739Z,94702.84
2019-06-15T21:46:56.506Z,94708.48
2019-06-15T21:49:36.641Z,94704.37
2019-06-15T21:52:16.541Z,94698.84
2019-06-15T21:54:55.932Z,94698.75
2019-06-15T21:57:32.535Z,94691.75
2019-06-15T22:00:17.457Z,94697.31
2019-06-15T22:02:56.142Z,94702.78
2019-06-15T22:05:36.866Z,94696.20
2019-06-15T22:08:17.063Z,94694.91
2019-06-15T22:10:56.358Z,94692.16
2019-06-15T22:13:31.324Z,94687.49
2019-06-15T22:16:13.836Z,94687.53
2019-06-15T22:18:50.996Z,94684.00
2019-06-15T22:21:28.306Z,94684.36
2019-06-15T22:24:06.847Z,94685.77
2019-06-15T22:26:42.229Z,94675.28
2019-06-15T22:29:21.520Z,94684.23
2019-06-15T22:31:57.113Z,94684.27
2019-06-15T22:34:36.284Z,94686.47
2019-06-15T22:37:14.495Z,94680.27
2019-06-15T22:39:51.431Z,94682.14
2019-06-15T22:42:26.633Z,94673.01
2019-06-15T22:45:02.130Z,94669.16
2019-06-15T22:47:46.603Z,94665.27
2019-06-15T22:50:22.570Z,94657.58
2019-06-15T22:53:06.354Z,94651.23
2019-06-15T22:55:41.111Z,94655.52
2019-06-15T22:58:21.690Z,94654.16
2019-06-15T23:00:56.775Z,94648.42
2019-06-15T23:03:32.858Z,94652.88
2019-06-15T23:06:13.172Z,94659.63
2019-06-15T23:08:50.140Z,94657.52
2019-06-15T23:11:28.744Z,94656.55
2019-06-15T23:14:07.377Z,94655.37
2019-06-15T23:16:47.710Z,94656.44
2019-06-15T23:19:26.188Z,94651.47
2019-06-15T23:22:07.637Z,94649.27
2019-06-15T23:24:46.829Z,94636.45
2019-06-15T23:27:26.655Z,94630.27
2019-06-15T23:30:06.585Z,94631.04
2019-06-15T23:32:42.976Z,94635.78
2019-06-15T23:35:26.959Z,94643.67
2019-06-15T23:38:06.527Z,94644.98
2019-06-15T23:40:43.575Z,94641.83
2019-06-15T23:43:22.402Z,94640.78
2019-06-15T23:45:59.544Z,94639.44
2019-06-15T23:48:38.982Z,94636.92
2019-06-15T23:51:20.638Z,94637.89
2019-06-15T23:53:58.615Z,94646.33
2019-06-15T23:56:36.885Z,94642.83
2019-06-15T23:59:26.302Z,94642.95
